Nashotah, Wisconsin
Current Conditions -  °F | °C
As of 5:45 PM on Sunday 23 Nov 2014 (Local Time) from KUES Reporting Station
Light Rain Light Rain  
Wind Chill: 41°   Ceiling: 300
Heat Index: 45°   Visibility: 3mi
Dew Point: 45°   Wind: 7mph
Humidity: 100%   Direction: 140°SE
Pressure: 29.4"   Gusts: NA
Location:  43.1°N, 88.4°W
Report Text: KUES 232345Z 14006KT 3SM -RA BR OVC003 07/07 A2940
Loading
Personal Weather Stations






























Interactive Weather Map New forecast layout! Learn more

10-Day Weather Forecast

Advertisements
Track Severe Weather on mobile